Time;durP1;ratioP1;P1;durP2;ratioP2;P2;SDS_P1;SDS_P2;PMS_P1;PMS_P2;Temp;Humidity;BMP_temperature;BMP_pressure;BME280_temperature;BME280_humidity;BME280_pressure;Samples;Min_cycle;Max_cycle;Signal;HPM_P1;HPM_P2
2021/09/21 14:52:53;;;;;;;8.80;2.28;;;;;;;;;;1063349;27;99919;-53
2021/09/21 14:53:25;;;;;;;8.32;1.90;;;;;;;;;;1056060;27;100270;-49
2021/09/21 14:53:56;;;;;;;7.95;2.08;;;;;;;;;;1053790;27;100120;-53
2021/09/21 14:54:27;;;;;;;7.07;1.92;;;;;;;;;;1052752;27;100060;-50
2021/09/21 14:54:58;;;;;;;6.80;1.95;;;;;;;;;;1054904;27;100133;-55
2021/09/21 14:55:30;;;;;;;8.85;2.20;;;;;;;;;;1052308;27;100258;-56
2021/09/21 14:56:02;;;;;;;6.03;2.00;;;;;;;;;;1056378;27;100015;-55
2021/09/21 14:56:34;;;;;;;7.18;2.25;;;;;;;;;;1052347;27;100196;-50
2021/09/21 14:57:05;;;;;;;9.35;1.83;;;;;;;;;;1054478;27;100136;-55
2021/09/21 14:57:37;;;;;;;11.95;2.03;;;;;;;;;;1054209;27;100730;-55
2021/09/21 14:58:08;;;;;;;7.65;2.08;;;;;;;;;;1054339;27;100015;-57
2021/09/21 14:58:43;;;;;;;8.75;2.13;;;;;;;;;;1056335;27;101575;-52
2021/09/21 14:59:15;;;;;;;4.45;1.77;;;;;;;;;;1056507;27;100139;-54
2021/09/21 14:59:46;;;;;;;6.97;2.13;;;;;;;;;;1052061;27;100459;-55
2021/09/21 15:00:20;;;;;;;12.30;2.95;;;;;;;;;;1048808;27;100162;-53
2021/09/21 15:00:51;;;;;;;9.50;2.38;;;;;;;;;;1047604;27;100340;-54
2021/09/21 15:01:22;;;;;;;11.35;2.03;;;;;;;;;;1048950;27;99472;-51
2021/09/21 15:01:53;;;;;;;12.52;2.20;;;;;;;;;;1044001;27;100395;-53
2021/09/21 15:02:24;;;;;;;9.75;2.33;;;;;;;;;;1049111;27;99925;-51
2021/09/21 15:02:56;;;;;;;9.80;1.67;;;;;;;;;;1047840;27;100472;-51
2021/09/21 15:03:27;;;;;;;7.68;1.80;;;;;;;;;;1049005;27;100083;-52
2021/09/21 15:03:58;;;;;;;8.23;2.15;;;;;;;;;;1051971;27;101339;-51
2021/09/21 15:04:29;;;;;;;8.68;2.60;;;;;;;;;;1053666;27;99852;-53
2021/09/21 15:05:00;;;;;;;7.70;2.20;;;;;;;;;;1052272;27;100767;-51
2021/09/21 15:05:32;;;;;;;9.25;2.33;;;;;;;;;;1053625;27;99913;-49
2021/09/21 15:06:03;;;;;;;9.32;1.80;;;;;;;;;;1052245;27;100438;-53
2021/09/21 15:06:35;;;;;;;12.38;2.10;;;;;;;;;;1053632;27;99823;-52
2021/09/21 15:07:06;;;;;;;9.75;1.92;;;;;;;;;;1052251;27;100432;-53
2021/09/21 15:07:38;;;;;;;4.68;1.85;;;;;;;;;;1053361;27;100071;-54
2021/09/21 15:08:09;;;;;;;4.47;2.22;;;;;;;;;;1052125;27;100633;-52
2021/09/21 15:08:41;;;;;;;8.80;2.25;;;;;;;;;;1052974;27;99879;-53
2021/09/21 15:09:12;;;;;;;6.28;2.60;;;;;;;;;;1052231;27;100932;-52
2021/09/21 15:09:43;;;;;;;7.30;2.10;;;;;;;;;;1053338;27;99869;-50
2021/09/21 15:10:14;;;;;;;11.57;2.22;;;;;;;;;;1052058;27;100505;-49
2021/09/21 15:10:45;;;;;;;8.63;2.10;;;;;;;;;;1053585;27;99855;-51
2021/09/21 15:11:17;;;;;;;11.30;1.95;;;;;;;;;;1052316;27;100416;-55
2021/09/21 15:11:48;;;;;;;7.38;1.70;;;;;;;;;;1053369;27;100040;-54
2021/09/21 15:12:19;;;;;;;5.82;2.00;;;;;;;;;;1052009;27;100699;-51
2021/09/21 15:12:50;;;;;;;4.93;1.80;;;;;;;;;;1053602;27;100508;-52
2021/09/21 15:13:21;;;;;;;12.10;2.03;;;;;;;;;;1051889;27;100519;-53
2021/09/21 15:13:53;;;;;;;10.60;2.35;;;;;;;;;;1053614;27;100006;-53
2021/09/21 15:14:24;;;;;;;7.30;1.60;;;;;;;;;;1047600;27;100588;-54
2021/09/21 15:14:55;;;;;;;9.10;1.90;;;;;;;;;;1044743;27;100118;-50
2021/09/21 15:15:26;;;;;;;6.57;1.70;;;;;;;;;;1043507;27;100489;-52
2021/09/21 15:15:58;;;;;;;9.88;2.03;;;;;;;;;;1045184;27;100237;-53
2021/09/21 15:16:29;;;;;;;9.00;2.15;;;;;;;;;;1048163;27;100492;-49
2021/09/21 15:17:00;;;;;;;4.32;1.60;;;;;;;;;;1053067;27;100015;-52
2021/09/21 15:17:31;;;;;;;16.90;2.08;;;;;;;;;;1052700;27;100460;-53
2021/09/21 15:18:02;;;;;;;8.82;1.92;;;;;;;;;;1053554;27;99726;-52
2021/09/21 15:18:35;;;;;;;7.35;1.80;;;;;;;;;;1052070;27;100510;-51
2021/09/21 15:19:09;;;;;;;8.93;1.73;;;;;;;;;;1044509;27;99916;-52
2021/09/21 15:19:40;;;;;;;7.47;1.80;;;;;;;;;;1046794;27;100412;-52
2021/09/21 15:20:12;;;;;;;9.88;2.13;;;;;;;;;;1048937;27;100043;-53
2021/09/21 15:20:43;;;;;;;5.47;2.00;;;;;;;;;;1049215;27;100325;-50
2021/09/21 15:21:14;;;;;;;8.20;1.80;;;;;;;;;;1057618;27;99981;-49
2021/09/21 15:21:46;;;;;;;9.20;1.85;;;;;;;;;;1051761;27;100559;-51
2021/09/21 15:22:17;;;;;;;8.63;2.05;;;;;;;;;;1049073;27;99847;-51
2021/09/21 15:22:48;;;;;;;6.22;2.22;;;;;;;;;;1047325;27;100793;-49
2021/09/21 15:23:19;;;;;;;8.93;1.90;;;;;;;;;;1049492;27;100051;-48
2021/09/21 15:23:51;;;;;;;8.45;2.15;;;;;;;;;;1051752;27;101524;-52
2021/09/21 15:24:22;;;;;;;5.72;2.00;;;;;;;;;;1053516;27;99853;-48
2021/09/21 15:24:53;;;;;;;7.75;1.83;;;;;;;;;;1051720;27;101395;-50
2021/09/21 15:25:25;;;;;;;6.50;2.13;;;;;;;;;;1053451;27;99880;-49
2021/09/21 15:25:56;;;;;;;9.75;2.10;;;;;;;;;;1056020;27;100456;-51
2021/09/21 15:26:27;;;;;;;5.40;1.55;;;;;;;;;;1058040;27;99869;-48
2021/09/21 15:26:58;;;;;;;9.50;2.33;;;;;;;;;;1047418;27;100399;-52
2021/09/21 15:27:29;;;;;;;4.43;1.63;;;;;;;;;;1048900;27;100231;-54
2021/09/21 15:28:00;;;;;;;4.85;1.70;;;;;;;;;;1047578;27;100777;-49
2021/09/21 15:28:31;;;;;;;6.63;1.55;;;;;;;;;;1049708;27;100067;-52
2021/09/21 15:29:03;;;;;;;11.13;2.10;;;;;;;;;;1055900;27;101805;-51
2021/09/21 15:29:34;;;;;;;12.43;2.28;;;;;;;;;;1058014;27;99246;-50
2021/09/21 15:30:10;;;;;;;4.38;1.88;;;;;;;;;;1056312;27;100272;-57
2021/09/21 15:30:41;;;;;;;4.43;1.80;;;;;;;;;;1057699;27;100033;-56
2021/09/21 15:31:14;;;;;;;6.95;1.83;;;;;;;;;;1053119;27;100846;-57
2021/09/21 15:31:46;;;;;;;6.88;1.90;;;;;;;;;;1053681;27;100031;-57
2021/09/21 15:32:18;;;;;;;9.27;1.85;;;;;;;;;;1051713;27;101303;-58
2021/09/21 15:32:49;;;;;;;7.00;1.77;;;;;;;;;;1053690;27;99959;-57
2021/09/21 15:33:20;;;;;;;8.40;1.80;;;;;;;;;;1051940;27;100535;-56
2021/09/21 15:33:51;;;;;;;8.70;2.45;;;;;;;;;;1053474;27;100024;-57
2021/09/21 15:34:23;;;;;;;7.18;1.60;;;;;;;;;;1052071;27;100430;-57
2021/09/21 15:34:54;;;;;;;6.65;2.00;;;;;;;;;;1053626;27;99908;-57
2021/09/21 15:35:25;;;;;;;6.22;1.95;;;;;;;;;;1051927;27;100441;-55
2021/09/21 15:35:56;;;;;;;9.25;1.90;;;;;;;;;;1053632;27;99837;-56
2021/09/21 15:36:27;;;;;;;9.18;1.60;;;;;;;;;;1052099;27;100577;-57
2021/09/21 15:37:00;;;;;;;9.95;2.03;;;;;;;;;;1053666;27;99992;-57
2021/09/21 15:37:31;;;;;;;5.70;1.65;;;;;;;;;;1051684;27;100434;-57
2021/09/21 15:38:07;;;;;;;8.05;1.60;;;;;;;;;;1053748;27;99837;-58
2021/09/21 15:38:38;;;;;;;7.90;1.98;;;;;;;;;;1047624;27;100448;-53
2021/09/21 15:39:11;;;;;;;13.85;2.35;;;;;;;;;;1048657;27;100135;-50
2021/09/21 15:39:43;;;;;;;7.75;2.03;;;;;;;;;;1048547;27;100557;-50
2021/09/21 15:40:14;;;;;;;4.97;1.63;;;;;;;;;;1050829;27;100101;-52
2021/09/21 15:40:52;;;;;;;8.40;2.00;;;;;;;;;;1052936;27;100845;-54
2021/09/21 15:41:23;;;;;;;7.78;2.13;;;;;;;;;;1048725;27;100176;-51
2021/09/21 15:41:54;;;;;;;7.68;1.88;;;;;;;;;;1048208;27;102046;-54
2021/09/21 15:42:27;;;;;;;6.30;1.70;;;;;;;;;;1049821;27;100247;-54
2021/09/21 15:42:58;;;;;;;7.03;1.70;;;;;;;;;;1040845;27;101602;-52
2021/09/21 15:43:29;;;;;;;5.43;1.70;;;;;;;;;;1046892;27;100761;-55
2021/09/21 15:44:01;;;;;;;9.63;2.13;;;;;;;;;;1048718;27;101995;-55
2021/09/21 15:44:32;;;;;;;7.40;2.03;;;;;;;;;;1050505;27;100595;-55
2021/09/21 15:45:05;;;;;;;8.55;2.40;;;;;;;;;;1053050;27;100678;-54
2021/09/21 15:45:37;;;;;;;6.53;2.05;;;;;;;;;;1054026;27;100116;-53
2021/09/21 15:46:08;;;;;;;10.27;1.90;;;;;;;;;;1052986;27;100652;-54
2021/09/21 15:46:40;;;;;;;10.93;1.95;;;;;;;;;;1054633;27;100107;-54
2021/09/21 15:47:11;;;;;;;7.95;1.88;;;;;;;;;;1048571;27;100492;-55
2021/09/21 15:47:44;;;;;;;8.65;1.85;;;;;;;;;;1048201;27;100290;-53
2021/09/21 15:48:16;;;;;;;5.22;1.70;;;;;;;;;;1048713;27;100451;-54
2021/09/21 15:48:47;;;;;;;5.40;1.90;;;;;;;;;;1051072;27;100223;-51
2021/09/21 15:49:18;;;;;;;8.60;2.08;;;;;;;;;;1053207;27;100665;-51
2021/09/21 15:49:49;;;;;;;3.67;1.58;;;;;;;;;;1054104;27;100214;-52
2021/09/21 15:50:21;;;;;;;5.78;1.85;;;;;;;;;;1053143;27;100786;-54
2021/09/21 15:50:54;;;;;;;8.35;2.08;;;;;;;;;;1053899;27;100133;-53
2021/09/21 15:51:25;;;;;;;7.90;2.00;;;;;;;;;;1052634;27;101426;-50
2021/09/21 15:51:56;;;;;;;13.77;2.03;;;;;;;;;;1052304;27;100145;-52
2021/09/21 15:52:27;;;;;;;9.18;2.20;;;;;;;;;;1052819;27;100535;-50
2021/09/21 15:52:59;;;;;;;6.15;1.80;;;;;;;;;;1049766;27;100269;-47
2021/09/21 15:53:30;;;;;;;7.88;2.10;;;;;;;;;;1047268;27;100437;-52
2021/09/21 15:54:02;;;;;;;6.03;1.95;;;;;;;;;;1048160;27;100181;-50
2021/09/21 15:54:34;;;;;;;4.50;1.50;;;;;;;;;;1048184;27;100776;-50
2021/09/21 15:55:06;;;;;;;2.67;1.60;;;;;;;;;;1052947;27;100138;-53
2021/09/21 15:55:37;;;;;;;8.98;1.70;;;;;;;;;;1048176;27;100840;-53
2021/09/21 15:56:11;;;;;;;6.90;2.10;;;;;;;;;;1052838;27;100145;-51
2021/09/21 15:56:43;;;;;;;7.43;1.83;;;;;;;;;;1051426;27;101869;-50
2021/09/21 15:57:15;;;;;;;6.28;1.67;;;;;;;;;;1053039;27;99843;-53
2021/09/21 15:57:47;;;;;;;7.72;1.80;;;;;;;;;;1054205;27;100551;-52
2021/09/21 15:58:19;;;;;;;6.45;1.88;;;;;;;;;;1052581;27;100137;-53
2021/09/21 15:58:50;;;;;;;4.05;1.90;;;;;;;;;;1051395;27;101738;-49
2021/09/21 15:59:21;;;;;;;7.40;1.92;;;;;;;;;;1052881;27;100109;-54
2021/09/21 15:59:52;;;;;;;3.72;1.63;;;;;;;;;;1052107;27;100462;-49
2021/09/21 16:00:26;;;;;;;10.30;2.00;;;;;;;;;;1057273;27;99923;-53
2021/09/21 16:00:57;;;;;;;5.78;1.73;;;;;;;;;;1047057;27;100242;-52
2021/09/21 16:01:28;;;;;;;6.47;1.70;;;;;;;;;;1048794;27;99923;-48
2021/09/21 16:02:00;;;;;;;5.63;1.80;;;;;;;;;;1047391;27;100441;-52
2021/09/21 16:02:31;;;;;;;6.78;1.80;;;;;;;;;;1049271;27;99970;-53
2021/09/21 16:03:03;;;;;;;6.32;1.70;;;;;;;;;;1051805;27;100459;-54
2021/09/21 16:03:34;;;;;;;5.00;1.73;;;;;;;;;;1051910;27;99852;-52
2021/09/21 16:04:05;;;;;;;9.23;1.92;;;;;;;;;;1043887;27;101369;-50
2021/09/21 16:04:37;;;;;;;5.82;1.83;;;;;;;;;;1045629;27;100043;-53
2021/09/21 16:05:09;;;;;;;4.90;1.60;;;;;;;;;;1044520;27;100555;-49
2021/09/21 16:05:40;;;;;;;6.43;2.25;;;;;;;;;;1046384;27;100050;-53
2021/09/21 16:06:12;;;;;;;4.13;1.65;;;;;;;;;;1048771;27;100619;-50
2021/09/21 16:06:43;;;;;;;7.50;2.08;;;;;;;;;;1050401;27;99930;-53
2021/09/21 16:07:14;;;;;;;4.88;1.60;;;;;;;;;;1049165;27;100147;-51
2021/09/21 16:07:46;;;;;;;10.98;1.92;;;;;;;;;;1050242;27;99717;-51
2021/09/21 16:08:18;;;;;;;4.93;1.65;;;;;;;;;;1048782;27;100712;-49
2021/09/21 16:08:49;;;;;;;5.88;1.50;;;;;;;;;;1050289;27;100085;-51
2021/09/21 16:09:21;;;;;;;9.05;2.40;;;;;;;;;;1048808;27;100417;-49
2021/09/21 16:09:53;;;;;;;6.30;1.70;;;;;;;;;;1050050;27;99913;-53
2021/09/21 16:10:27;;;;;;;7.38;1.92;;;;;;;;;;1048664;27;100481;-50
2021/09/21 16:10:59;;;;;;;7.72;1.63;;;;;;;;;;1050096;27;100102;-49
2021/09/21 16:11:30;;;;;;;8.23;1.83;;;;;;;;;;1049148;27;100856;-49
2021/09/21 16:12:02;;;;;;;2.58;1.50;;;;;;;;;;1050358;27;100064;-53
2021/09/21 16:12:33;;;;;;;7.00;1.75;;;;;;;;;;1044311;27;101612;-49
2021/09/21 16:13:07;;;;;;;6.57;2.25;;;;;;;;;;1045822;27;100083;-54
2021/09/21 16:13:38;;;;;;;9.27;1.83;;;;;;;;;;1044443;27;100810;-50
2021/09/21 16:14:10;;;;;;;10.48;1.98;;;;;;;;;;1046591;27;99891;-48
2021/09/21 16:14:41;;;;;;;9.52;1.63;;;;;;;;;;1048731;27;100426;-51
2021/09/21 16:15:13;;;;;;;5.00;1.60;;;;;;;;;;1050302;27;100068;-50
2021/09/21 16:15:44;;;;;;;9.00;1.80;;;;;;;;;;1048825;27;100840;-48
2021/09/21 16:16:16;;;;;;;5.07;1.92;;;;;;;;;;1050009;27;100050;-49
2021/09/21 16:16:49;;;;;;;7.82;1.85;;;;;;;;;;1048788;27;101180;-53
2021/09/21 16:17:21;;;;;;;9.27;1.70;;;;;;;;;;1050136;27;100064;-49
2021/09/21 16:17:53;;;;;;;12.13;1.90;;;;;;;;;;1049132;27;100485;-53
2021/09/21 16:18:24;;;;;;;7.15;1.75;;;;;;;;;;1045480;27;99969;-48
2021/09/21 16:18:56;;;;;;;5.95;1.63;;;;;;;;;;1044300;27;100417;-50
2021/09/21 16:19:27;;;;;;;6.15;1.77;;;;;;;;;;1045683;27;99900;-51
2021/09/21 16:19:58;;;;;;;9.95;1.80;;;;;;;;;;1044811;27;100505;-52
2021/09/21 16:20:29;;;;;;;6.97;1.70;;;;;;;;;;1050114;27;99992;-50
2021/09/21 16:21:01;;;;;;;12.30;2.28;;;;;;;;;;1048442;27;100638;-48
2021/09/21 16:21:32;;;;;;;5.85;1.70;;;;;;;;;;1050382;27;100117;-48
2021/09/21 16:22:05;;;;;;;6.85;1.83;;;;;;;;;;1049053;27;100633;-49
2021/09/21 16:22:37;;;;;;;5.82;1.88;;;;;;;;;;1050493;27;99887;-52
2021/09/21 16:23:09;;;;;;;5.50;1.63;;;;;;;;;;1048655;27;101153;-51
2021/09/21 16:23:40;;;;;;;5.10;1.90;;;;;;;;;;1050329;27;99994;-49
2021/09/21 16:24:11;;;;;;;6.78;2.03;;;;;;;;;;1044266;27;100517;-50
2021/09/21 16:24:42;;;;;;;7.55;1.83;;;;;;;;;;1045290;27;99999;-49
2021/09/21 16:25:16;;;;;;;10.77;2.03;;;;;;;;;;1044371;27;100529;-48
2021/09/21 16:25:48;;;;;;;9.85;2.20;;;;;;;;;;1046461;27;99909;-49
2021/09/21 16:26:19;;;;;;;5.80;2.00;;;;;;;;;;1048667;27;101409;-48
2021/09/21 16:26:50;;;;;;;8.77;2.20;;;;;;;;;;1045856;27;100022;-49
2021/09/21 16:27:21;;;;;;;8.27;1.98;;;;;;;;;;1044117;27;100719;-48
2021/09/21 16:27:55;;;;;;;5.60;1.35;;;;;;;;;;1045878;27;99912;-48
2021/09/21 16:28:27;;;;;;;7.32;1.80;;;;;;;;;;1045512;27;100429;-49
2021/09/21 16:28:58;;;;;;;5.60;1.60;;;;;;;;;;1050138;27;100086;-49
2021/09/21 16:29:29;;;;;;;6.38;1.95;;;;;;;;;;1044418;27;100433;-48
2021/09/21 16:30:01;;;;;;;11.02;1.70;;;;;;;;;;1045436;27;100104;-51
2021/09/21 16:30:33;;;;;;;6.57;1.75;;;;;;;;;;1044545;27;100483;-48
2021/09/21 16:31:05;;;;;;;10.82;1.90;;;;;;;;;;1046489;27;99274;-49
2021/09/21 16:31:36;;;;;;;5.97;1.90;;;;;;;;;;1048772;27;100811;-48
2021/09/21 16:32:08;;;;;;;6.57;1.77;;;;;;;;;;1045710;27;100031;-52
2021/09/21 16:32:40;;;;;;;11.50;2.10;;;;;;;;;;1044502;27;100255;-48
2021/09/21 16:33:12;;;;;;;7.22;2.22;;;;;;;;;;1045722;27;99947;-49
2021/09/21 16:33:44;;;;;;;8.20;1.98;;;;;;;;;;1045114;27;100434;-47
2021/09/21 16:34:16;;;;;;;6.72;1.65;;;;;;;;;;1050343;27;99958;-48
2021/09/21 16:34:47;;;;;;;8.77;1.95;;;;;;;;;;1044069;27;103138;-48
2021/09/21 16:35:22;;;;;;;7.68;2.15;;;;;;;;;;1045482;27;99918;-48
2021/09/21 16:35:53;;;;;;;6.95;1.90;;;;;;;;;;1044512;27;100586;-48
2021/09/21 16:36:24;;;;;;;18.10;2.40;;;;;;;;;;1046361;27;99872;-49
2021/09/21 16:36:56;;;;;;;8.10;1.90;;;;;;;;;;1049082;27;100399;-47
2021/09/21 16:37:32;;;;;;;4.07;1.83;;;;;;;;;;1050050;27;100057;-48
2021/09/21 16:38:07;;;;;;;6.57;1.73;;;;;;;;;;1049002;27;100952;-49
2021/09/21 16:38:39;;;;;;;6.05;1.67;;;;;;;;;;1045467;27;99909;-53
2021/09/21 16:39:11;;;;;;;6.47;2.00;;;;;;;;;;1044353;27;101718;-50
2021/09/21 16:39:42;;;;;;;11.38;2.30;;;;;;;;;;1040943;28;99920;-51
2021/09/21 16:40:13;;;;;;;6.28;1.75;;;;;;;;;;1040491;27;101363;-50
2021/09/21 16:40:51;;;;;;;5.38;2.15;;;;;;;;;;1045525;27;99996;-51
2021/09/21 16:41:22;;;;;;;5.93;1.95;;;;;;;;;;1045755;27;100601;-52
2021/09/21 16:41:53;;;;;;;8.27;2.10;;;;;;;;;;1049629;27;101130;-52
2021/09/21 16:42:24;;;;;;;5.65;2.10;;;;;;;;;;1048842;27;101346;-51
2021/09/21 16:42:56;;;;;;;8.68;1.95;;;;;;;;;;1050178;27;99905;-50
2021/09/21 16:43:27;;;;;;;7.10;1.85;;;;;;;;;;1049168;27;100766;-51
2021/09/21 16:43:59;;;;;;;8.57;2.30;;;;;;;;;;1050039;27;100198;-50
2021/09/21 16:44:34;;;;;;;9.05;2.13;;;;;;;;;;1048895;27;100773;-50
2021/09/21 16:45:06;;;;;;;6.95;1.65;;;;;;;;;;1049552;27;99906;-51
2021/09/21 16:45:38;;;;;;;8.02;1.98;;;;;;;;;;1039627;27;100891;-51
2021/09/21 16:46:12;;;;;;;6.30;1.77;;;;;;;;;;1043089;27;100585;-50
2021/09/21 16:46:45;;;;;;;9.40;1.92;;;;;;;;;;1044493;27;100450;-53
2021/09/21 16:47:16;;;;;;;9.68;1.85;;;;;;;;;;1046818;27;99828;-52
2021/09/21 16:47:48;;;;;;;9.70;1.85;;;;;;;;;;1048760;27;101648;-52
2021/09/21 16:48:20;;;;;;;7.07;1.95;;;;;;;;;;1045428;27;99761;-51
2021/09/21 16:48:51;;;;;;;6.07;1.83;;;;;;;;;;1044402;27;100512;-52
2021/09/21 16:49:22;;;;;;;9.38;1.88;;;;;;;;;;1045616;27;100033;-54
2021/09/21 16:49:53;;;;;;;7.88;1.92;;;;;;;;;;1044597;27;100462;-51
2021/09/21 16:50:25;;;;;;;8.07;1.88;;;;;;;;;;1049721;27;99961;-52
2021/09/21 16:50:57;;;;;;;4.13;1.60;;;;;;;;;;1048322;27;100568;-52
2021/09/21 16:51:28;;;;;;;8.77;2.22;;;;;;;;;;1049906;27;99926;-52
2021/09/21 16:51:59;;;;;;;6.57;2.17;;;;;;;;;;1048567;27;100408;-53
2021/09/21 16:52:31;;;;;;;6.30;1.80;;;;;;;;;;1050158;27;99876;-51
2021/09/21 16:53:03;;;;;;;6.47;1.80;;;;;;;;;;1048831;27;100437;-51
2021/09/21 16:53:35;;;;;;;5.65;1.95;;;;;;;;;;1050053;27;99849;-49
2021/09/21 16:54:06;;;;;;;8.20;1.95;;;;;;;;;;1048791;27;100528;-52
2021/09/21 16:54:37;;;;;;;5.65;1.85;;;;;;;;;;1050076;27;100311;-51
2021/09/21 16:55:12;;;;;;;8.43;1.95;;;;;;;;;;1048418;27;100581;-50
2021/09/21 16:55:43;;;;;;;13.68;2.28;;;;;;;;;;1050051;27;99934;-52
2021/09/21 16:56:15;;;;;;;10.18;2.53;;;;;;;;;;1048674;27;100551;-52
2021/09/21 16:56:46;;;;;;;9.52;1.85;;;;;;;;;;1050078;27;99881;-54
2021/09/21 16:57:17;;;;;;;8.68;2.00;;;;;;;;;;1048999;27;100765;-51
2021/09/21 16:57:48;;;;;;;5.78;1.77;;;;;;;;;;1054523;27;100128;-52
2021/09/21 16:58:20;;;;;;;7.55;2.10;;;;;;;;;;1048372;27;100903;-53
2021/09/21 16:58:54;;;;;;;5.72;2.05;;;;;;;;;;1049348;27;99896;-50
2021/09/21 16:59:25;;;;;;;10.23;2.15;;;;;;;;;;1044094;27;100426;-52
2021/09/21 16:59:56;;;;;;;7.57;2.30;;;;;;;;;;1046444;27;99795;-51
2021/09/21 17:00:30;;;;;;;7.72;2.35;;;;;;;;;;1044140;27;101008;-59
2021/09/21 17:01:03;;;;;;;8.60;2.08;;;;;;;;;;1046631;27;100064;-52
2021/09/21 17:01:37;;;;;;;5.60;2.03;;;;;;;;;;1042782;27;100638;-50
2021/09/21 17:02:09;;;;;;;4.90;1.85;;;;;;;;;;1046548;27;100248;-55
2021/09/21 17:02:43;;;;;;;16.33;2.65;;;;;;;;;;1045090;27;100446;-51
2021/09/21 17:03:25;;;;;;;11.70;2.47;;;;;;;;;;1047491;27;99976;-51
2021/09/21 17:03:59;;;;;;;8.50;2.20;;;;;;;;;;1048991;27;100448;-49
2021/09/21 17:04:31;;;;;;;5.78;2.10;;;;;;;;;;1049668;27;100058;-54
2021/09/21 17:05:04;;;;;;;6.32;1.70;;;;;;;;;;1048696;27;100494;-54
2021/09/21 17:05:36;;;;;;;10.20;2.67;;;;;;;;;;1053977;27;100155;-55
2021/09/21 17:06:14;;;;;;;6.28;2.00;;;;;;;;;;1053083;27;100745;-55
2021/09/21 17:06:45;;;;;;;7.68;2.00;;;;;;;;;;1054370;27;99923;-50
2021/09/21 17:07:16;;;;;;;7.03;2.05;;;;;;;;;;1052902;27;101414;-54
2021/09/21 17:07:48;;;;;;;10.98;2.20;;;;;;;;;;1054381;27;100259;-52
2021/09/21 17:08:22;;;;;;;10.13;2.13;;;;;;;;;;1052974;27;100394;-52
2021/09/21 17:08:57;;;;;;;7.55;2.00;;;;;;;;;;1054108;27;99761;-54
2021/09/21 17:09:29;;;;;;;6.13;1.92;;;;;;;;;;1048377;27;101305;-50
2021/09/21 17:10:00;;;;;;;6.28;2.15;;;;;;;;;;1049587;27;100120;-48
2021/09/21 17:10:31;;;;;;;7.82;2.25;;;;;;;;;;1048441;27;100464;-54
2021/09/21 17:11:03;;;;;;;6.47;2.10;;;;;;;;;;1045744;27;100176;-56
2021/09/21 17:11:35;;;;;;;5.68;2.05;;;;;;;;;;1048518;27;100519;-51
2021/09/21 17:12:06;;;;;;;5.95;2.15;;;;;;;;;;1049809;27;99954;-56
2021/09/21 17:12:37;;;;;;;8.23;2.15;;;;;;;;;;1045287;27;101118;-53
2021/09/21 17:13:08;;;;;;;9.93;2.13;;;;;;;;;;1053842;27;100163;-55
2021/09/21 17:13:40;;;;;;;5.20;1.90;;;;;;;;;;1049281;27;100820;-52
2021/09/21 17:14:11;;;;;;;6.25;2.05;;;;;;;;;;1050202;27;99852;-53
2021/09/21 17:14:42;;;;;;;6.03;1.80;;;;;;;;;;1045982;27;100615;-54
2021/09/21 17:15:13;;;;;;;6.75;1.70;;;;;;;;;;1045795;27;100214;-52
2021/09/21 17:15:45;;;;;;;6.57;1.70;;;;;;;;;;1046970;27;100338;-51
2021/09/21 17:16:16;;;;;;;7.15;2.10;;;;;;;;;;1050265;27;99295;-56
2021/09/21 17:16:47;;;;;;;6.40;1.83;;;;;;;;;;1049564;27;100482;-55
2021/09/21 17:17:19;;;;;;;7.72;2.22;;;;;;;;;;1050888;27;100258;-52
2021/09/21 17:17:50;;;;;;;7.47;2.20;;;;;;;;;;1050116;27;100764;-52
2021/09/21 17:18:21;;;;;;;5.07;1.85;;;;;;;;;;1051545;27;100095;-53
2021/09/21 17:18:54;;;;;;;4.18;1.83;;;;;;;;;;1050845;27;100503;-53
2021/09/21 17:19:26;;;;;;;5.63;1.67;;;;;;;;;;1048285;27;100243;-56
2021/09/21 17:19:57;;;;;;;4.40;1.98;;;;;;;;;;1042914;27;103477;-54
2021/09/21 17:20:28;;;;;;;2.75;1.88;;;;;;;;;;1045569;27;100104;-49
2021/09/21 17:21:01;;;;;;;6.38;2.40;;;;;;;;;;1043626;27;100765;-51
2021/09/21 17:21:34;;;;;;;15.18;2.35;;;;;;;;;;1046454;27;100250;-49
2021/09/21 17:22:05;;;;;;;7.07;2.00;;;;;;;;;;1044212;27;100441;-49
2021/09/21 17:22:36;;;;;;;8.02;2.10;;;;;;;;;;1045444;27;100100;-52
2021/09/21 17:23:08;;;;;;;4.07;1.88;;;;;;;;;;1044189;27;100268;-52
2021/09/21 17:23:42;;;;;;;8.23;2.03;;;;;;;;;;1046168;27;100122;-51
2021/09/21 17:24:13;;;;;;;8.82;2.00;;;;;;;;;;1052899;27;100756;-50
2021/09/21 17:24:44;;;;;;;6.68;2.55;;;;;;;;;;1054295;27;99877;-51
2021/09/21 17:25:16;;;;;;;5.05;2.03;;;;;;;;;;1048601;27;100483;-49
2021/09/21 17:25:48;;;;;;;6.00;2.00;;;;;;;;;;1049533;27;100013;-51
2021/09/21 17:26:23;;;;;;;5.57;1.95;;;;;;;;;;1048261;27;101018;-49
2021/09/21 17:26:54;;;;;;;5.70;2.03;;;;;;;;;;1050708;27;100052;-50
2021/09/21 17:27:25;;;;;;;6.00;2.17;;;;;;;;;;1053125;27;100342;-53
2021/09/21 17:27:57;;;;;;;6.28;2.03;;;;;;;;;;1053972;27;100017;-51
2021/09/21 17:28:28;;;;;;;5.93;2.38;;;;;;;;;;1048476;27;100609;-49
2021/09/21 17:29:01;;;;;;;5.45;2.00;;;;;;;;;;1049584;27;100249;-49
2021/09/21 17:29:32;;;;;;;7.47;2.05;;;;;;;;;;1048280;27;100669;-49
2021/09/21 17:30:06;;;;;;;8.13;2.30;;;;;;;;;;1046088;27;99927;-48
2021/09/21 17:30:37;;;;;;;4.50;1.63;;;;;;;;;;1048364;27;100868;-48
2021/09/21 17:31:08;;;;;;;4.03;1.98;;;;;;;;;;1045168;27;100103;-51
2021/09/21 17:31:40;;;;;;;6.93;2.00;;;;;;;;;;1040373;27;101708;-54
2021/09/21 17:32:12;;;;;;;7.97;2.25;;;;;;;;;;1041242;28;99895;-52
2021/09/21 17:32:43;;;;;;;14.13;2.00;;;;;;;;;;1040638;27;100425;-53
2021/09/21 17:33:14;;;;;;;3.95;1.90;;;;;;;;;;1037488;28;99906;-52
2021/09/21 17:33:45;;;;;;;7.13;2.30;;;;;;;;;;1040176;27;100194;-50
2021/09/21 17:34:17;;;;;;;6.55;1.92;;;;;;;;;;1040818;28;99825;-56
2021/09/21 17:34:48;;;;;;;6.82;1.90;;;;;;;;;;1041121;27;100446;-48
2021/09/21 17:35:20;;;;;;;3.03;1.65;;;;;;;;;;1049805;27;100082;-49
2021/09/21 17:35:51;;;;;;;6.65;2.10;;;;;;;;;;1048654;27;100440;-52
2021/09/21 17:36:22;;;;;;;4.28;2.10;;;;;;;;;;1054465;27;99746;-49
2021/09/21 17:36:53;;;;;;;4.70;1.70;;;;;;;;;;1053099;27;100585;-50
2021/09/21 17:37:24;;;;;;;5.18;2.33;;;;;;;;;;1054456;27;99246;-48
2021/09/21 17:37:56;;;;;;;6.00;2.22;;;;;;;;;;1052621;27;100349;-50
2021/09/21 17:38:27;;;;;;;9.52;2.00;;;;;;;;;;1054390;27;99905;-50
2021/09/21 17:38:58;;;;;;;5.28;1.95;;;;;;;;;;1052760;27;100500;-48
2021/09/21 17:39:29;;;;;;;3.47;1.70;;;;;;;;;;1053995;27;100140;-49
2021/09/21 17:40:01;;;;;;;5.78;2.13;;;;;;;;;;1052929;27;100419;-48
2021/09/21 17:40:34;;;;;;;10.23;2.38;;;;;;;;;;1054177;27;99865;-53
2021/09/21 17:41:05;;;;;;;4.28;1.80;;;;;;;;;;1052519;27;100597;-57
2021/09/21 17:41:45;;;;;;;5.30;2.00;;;;;;;;;;1045302;27;99870;-56
2021/09/21 17:42:19;;;;;;;4.45;2.10;;;;;;;;;;1043647;27;102655;-58
2021/09/21 17:42:52;;;;;;;4.60;1.90;;;;;;;;;;1038418;28;100768;-52
2021/09/21 17:43:23;;;;;;;4.10;1.80;;;;;;;;;;1037391;27;101087;-49
2021/09/21 17:43:54;;;;;;;5.03;1.80;;;;;;;;;;1046414;27;99979;-51
2021/09/21 17:44:25;;;;;;;8.10;1.88;;;;;;;;;;1048690;27;101623;-53
2021/09/21 17:44:56;;;;;;;4.35;1.80;;;;;;;;;;1053877;27;100021;-54
2021/09/21 17:45:29;;;;;;;4.80;1.70;;;;;;;;;;1045261;27;101459;-55
2021/09/21 17:46:00;;;;;;;2.95;1.70;;;;;;;;;;1045451;27;100237;-54
2021/09/21 17:46:31;;;;;;;7.55;2.10;;;;;;;;;;1044338;27;100689;-54
2021/09/21 17:47:03;;;;;;;4.22;2.00;;;;;;;;;;1046641;27;101074;-53
2021/09/21 17:47:34;;;;;;;4.32;1.85;;;;;;;;;;1033742;28;100529;-54
2021/09/21 17:48:06;;;;;;;3.97;1.95;;;;;;;;;;1035047;28;100342;-54
2021/09/21 17:48:38;;;;;;;4.13;2.00;;;;;;;;;;1034017;28;102355;-56
2021/09/21 17:49:09;;;;;;;3.95;2.13;;;;;;;;;;1037414;27;100194;-57
2021/09/21 17:49:40;;;;;;;6.70;1.92;;;;;;;;;;1049116;27;100403;-58
2021/09/21 17:50:13;;;;;;;5.43;2.10;;;;;;;;;;1050390;27;100228;-54
2021/09/21 17:50:44;;;;;;;6.38;1.88;;;;;;;;;;1044510;27;100445;-56
2021/09/21 17:51:15;;;;;;;3.72;1.95;;;;;;;;;;1046660;27;100072;-54
2021/09/21 17:51:47;;;;;;;3.17;1.88;;;;;;;;;;1040682;27;100391;-55
2021/09/21 17:52:18;;;;;;;6.68;1.80;;;;;;;;;;1040047;27;99996;-53
2021/09/21 17:52:51;;;;;;;6.22;2.05;;;;;;;;;;1043832;27;100391;-51
2021/09/21 17:53:22;;;;;;;3.97;1.90;;;;;;;;;;1042437;27;99954;-52
2021/09/21 17:53:53;;;;;;;7.60;2.05;;;;;;;;;;1044702;27;100499;-53
2021/09/21 17:54:24;;;;;;;4.68;2.08;;;;;;;;;;1049997;27;99279;-51
2021/09/21 17:54:57;;;;;;;5.15;1.90;;;;;;;;;;1048278;27;101266;-53
2021/09/21 17:55:30;;;;;;;4.97;1.83;;;;;;;;;;1049856;27;100050;-52
2021/09/21 17:56:02;;;;;;;4.88;2.00;;;;;;;;;;1044148;27;100563;-58
2021/09/21 17:56:34;;;;;;;5.47;2.00;;;;;;;;;;1045298;27;100055;-58
2021/09/21 17:57:05;;;;;;;5.25;2.28;;;;;;;;;;1039866;28;100468;-58
2021/09/21 17:57:37;;;;;;;3.75;1.88;;;;;;;;;;1041948;27;99929;-58
2021/09/21 17:58:08;;;;;;;4.30;1.90;;;;;;;;;;1040009;28;100536;-57
2021/09/21 17:58:39;;;;;;;6.03;2.35;;;;;;;;;;1041844;27;100178;-58
2021/09/21 17:59:10;;;;;;;4.90;1.65;;;;;;;;;;1044140;27;100620;-58
2021/09/21 17:59:41;;;;;;;2.65;1.80;;;;;;;;;;1045627;27;100277;-59
2021/09/21 18:00:14;;;;;;;4.10;1.98;;;;;;;;;;1048765;27;100243;-58
2021/09/21 18:00:45;;;;;;;5.07;1.95;;;;;;;;;;1045017;27;100044;-60